createdAt,value
2023-02-18T00:00:58.658Z,148.82
2023-02-18T00:03:40.503Z,151.00
2023-02-18T00:06:31.864Z,152.18
2023-02-18T00:09:16.145Z,149.30
2023-02-18T00:11:50.638Z,154.48
2023-02-18T00:14:28.124Z,147.20
2023-02-18T00:17:28.555Z,162.27
2023-02-18T00:23:09.821Z,139.85
2023-02-18T00:26:09.121Z,104.50
2023-02-18T00:29:08.337Z,132.77
2023-02-18T00:32:05.104Z,129.90
2023-02-18T00:38:03.032Z,124.47
2023-02-18T00:40:33.990Z,125.25
2023-02-18T00:43:05.277Z,99.35
2023-02-18T00:45:40.734Z,129.98
2023-02-18T00:48:11.981Z,130.70
2023-02-18T00:50:40.399Z,132.90
2023-02-18T00:53:20.664Z,132.60
2023-02-18T00:56:00.664Z,136.57
2023-02-18T00:58:55.582Z,131.57
2023-02-18T01:01:58.876Z,140.50
2023-02-18T01:08:03.668Z,139.13
2023-02-18T01:10:50.664Z,140.05
2023-02-18T01:13:25.295Z,139.27
2023-02-18T01:16:05.497Z,140.80
2023-02-18T01:21:53.945Z,131.35
2023-02-18T01:24:39.906Z,126.90
2023-02-18T01:27:19.866Z,126.07
2023-02-18T01:30:14.234Z,129.43
2023-02-18T01:42:27.240Z,117.65
2023-02-18T01:45:58.900Z,121.43
2023-02-18T01:49:10.609Z,107.25
2023-02-18T01:52:13.165Z,112.93
2023-02-18T01:55:05.523Z,117.10
2023-02-18T01:57:45.759Z,117.15
2023-02-18T02:00:49.136Z,121.85
2023-02-18T02:03:55.926Z,121.00
2023-02-18T02:10:20.642Z,125.57
2023-02-18T02:13:40.009Z,115.75
2023-02-18T02:20:01.776Z,109.20
2023-02-18T02:27:23.124Z,108.03
2023-02-18T02:30:55.118Z,105.78
2023-02-18T02:33:47.962Z,101.53
2023-02-18T02:37:31.925Z,101.82
2023-02-18T02:44:10.327Z,110.07
2023-02-18T02:50:51.294Z,109.78
2023-02-18T02:53:40.598Z,105.55
2023-02-18T02:56:23.221Z,105.55
2023-02-18T02:59:02.500Z,108.25
2023-02-18T03:01:56.650Z,116.85
2023-02-18T03:04:26.788Z,110.03
2023-02-18T03:07:25.668Z,114.95
2023-02-18T03:10:39.504Z,111.90
2023-02-18T03:13:19.491Z,118.28
2023-02-18T03:16:19.935Z,119.07
2023-02-18T03:19:00.288Z,126.45
2023-02-18T03:21:37.374Z,125.00
2023-02-18T03:24:23.585Z,141.20
2023-02-18T03:26:57.673Z,136.68
2023-02-18T03:29:26.942Z,140.82
2023-02-18T03:32:00.349Z,145.45
2023-02-18T03:34:32.669Z,166.80
2023-02-18T03:37:02.688Z,137.55
2023-02-18T03:39:33.973Z,153.98
2023-02-18T03:42:01.890Z,145.25
2023-02-18T03:44:32.347Z,143.60
2023-02-18T03:47:02.716Z,132.65
2023-02-18T03:49:30.257Z,152.73
2023-02-18T03:51:57.924Z,157.15
2023-02-18T03:54:27.930Z,129.60
2023-02-18T03:56:55.657Z,127.80
2023-02-18T03:59:23.080Z,129.75
2023-02-18T04:01:50.541Z,138.68
2023-02-18T04:04:17.974Z,121.70
2023-02-18T04:06:45.451Z,115.85
2023-02-18T04:09:12.885Z,115.32
2023-02-18T04:11:41.043Z,128.25
2023-02-18T04:14:08.917Z,124.07
2023-02-18T04:16:36.452Z,128.88
2023-02-18T04:19:03.988Z,120.60
2023-02-18T04:21:31.573Z,114.43
2023-02-18T04:23:59.594Z,100.47
2023-02-18T04:26:27.155Z,105.85
2023-02-18T04:28:54.878Z,113.38
2023-02-18T04:31:22.649Z,111.63
2023-02-18T04:33:50.183Z,107.55
2023-02-18T04:36:17.653Z,107.30
2023-02-18T04:38:45.104Z,123.50
2023-02-18T04:41:12.903Z,110.03
2023-02-18T04:43:40.357Z,112.32
2023-02-18T04:46:08.141Z,116.68
2023-02-18T04:48:35.743Z,114.65
2023-02-18T04:51:03.334Z,132.70
2023-02-18T04:53:30.734Z,124.95
2023-02-18T04:55:58.148Z,120.30
2023-02-18T04:58:25.862Z,121.82
2023-02-18T05:00:54.068Z,112.97
2023-02-18T05:03:21.519Z,122.88
2023-02-18T05:05:48.931Z,134.40
2023-02-18T05:08:16.404Z,122.80
2023-02-18T05:10:45.777Z,131.73
2023-02-18T05:13:14.428Z,125.35
2023-02-18T05:15:42.033Z,140.07
2023-02-18T05:18:09.514Z,136.68
2023-02-18T05:20:36.960Z,173.57
2023-02-18T05:23:04.374Z,147.85
2023-02-18T05:25:32.002Z,183.93
2023-02-18T05:27:59.405Z,135.85
2023-02-18T05:30:26.871Z,170.80
2023-02-18T05:32:54.396Z,141.57
2023-02-18T05:35:21.838Z,138.23
2023-02-18T05:37:49.219Z,149.50
2023-02-18T05:40:17.819Z,150.40
2023-02-18T05:42:48.165Z,170.80
2023-02-18T05:45:16.397Z,151.20
2023-02-18T05:47:47.669Z,137.70
2023-02-18T05:50:15.143Z,169.15
2023-02-18T05:52:42.539Z,175.43
2023-02-18T05:55:10.020Z,135.80
2023-02-18T05:57:37.436Z,138.98
2023-02-18T06:00:07.823Z,166.25
2023-02-18T06:02:35.308Z,172.75
2023-02-18T06:05:03.238Z,169.73
2023-02-18T06:07:30.721Z,180.93
2023-02-18T06:09:58.225Z,154.35
2023-02-18T06:12:25.815Z,160.18
2023-02-18T06:14:53.272Z,164.30
2023-02-18T06:17:22.673Z,150.88
2023-02-18T06:19:50.202Z,157.15
2023-02-18T06:22:17.712Z,166.45
2023-02-18T06:24:45.198Z,137.40
2023-02-18T06:27:12.919Z,140.27
2023-02-18T06:29:40.361Z,129.98
2023-02-18T06:32:07.950Z,130.98
2023-02-18T06:34:35.428Z,121.05
2023-02-18T06:37:08.749Z,126.72
2023-02-18T06:39:40.299Z,149.50
2023-02-18T06:42:07.785Z,125.82
2023-02-18T06:44:37.504Z,124.55
2023-02-18T06:47:06.312Z,125.32
2023-02-18T06:49:33.803Z,162.02
2023-02-18T06:52:01.217Z,148.68
2023-02-18T06:54:28.609Z,140.00
2023-02-18T06:56:55.995Z,155.13
2023-02-18T06:59:23.393Z,140.88
2023-02-18T07:01:50.882Z,131.80
2023-02-18T07:04:18.288Z,128.93
2023-02-18T07:06:45.690Z,150.88
2023-02-18T07:09:13.098Z,149.13
2023-02-18T07:11:40.510Z,138.15
2023-02-18T07:14:13.755Z,148.63
2023-02-18T07:16:47.103Z,161.23
2023-02-18T07:19:15.013Z,133.93
2023-02-18T07:21:43.145Z,139.45
2023-02-18T07:24:10.710Z,139.35
2023-02-18T07:26:38.116Z,175.32
2023-02-18T07:29:05.560Z,157.98
2023-02-18T07:31:33.004Z,156.85
2023-02-18T07:34:02.136Z,131.23
2023-02-18T07:36:29.557Z,133.18
2023-02-18T07:38:56.979Z,126.78
2023-02-18T07:41:24.432Z,148.02
2023-02-18T07:43:54.811Z,146.95
2023-02-18T07:46:22.408Z,127.70
2023-02-18T07:48:49.838Z,133.68
2023-02-18T07:51:17.403Z,155.15
2023-02-18T07:53:44.954Z,145.68
2023-02-18T07:56:12.436Z,148.57
2023-02-18T07:58:40.254Z,135.07
2023-02-18T08:01:14.735Z,133.98
2023-02-18T08:03:42.366Z,134.02
2023-02-18T08:06:21.911Z,119.22
2023-02-18T08:08:49.392Z,123.82
2023-02-18T08:11:19.387Z,120.03
2023-02-18T08:13:48.901Z,117.93
2023-02-18T08:16:18.396Z,119.53
2023-02-18T08:18:48.771Z,150.70
2023-02-18T08:21:17.977Z,119.10
2023-02-18T08:23:45.927Z,120.25
2023-02-18T08:26:13.550Z,122.95
2023-02-18T08:28:44.906Z,121.47
2023-02-18T08:31:27.124Z,120.63
2023-02-18T08:36:23.658Z,116.93
2023-02-18T08:38:51.376Z,120.15
2023-02-18T08:41:19.199Z,114.78
2023-02-18T08:43:47.566Z,113.57
2023-02-18T08:46:33.431Z,119.15
2023-02-18T08:49:04.752Z,118.93
2023-02-18T08:51:32.932Z,122.88
2023-02-18T08:54:00.564Z,126.88
2023-02-18T08:56:28.224Z,119.18
2023-02-18T08:58:55.902Z,117.13
2023-02-18T09:01:23.658Z,116.57
2023-02-18T09:03:51.324Z,116.55
2023-02-18T09:06:18.883Z,113.22
2023-02-18T09:08:46.365Z,116.25
2023-02-18T09:11:15.501Z,123.50
2023-02-18T09:13:43.925Z,114.05
2023-02-18T09:16:20.894Z,110.88
2023-02-18T09:18:51.776Z,114.47
2023-02-18T09:21:20.879Z,113.88
2023-02-18T09:23:48.902Z,109.13
2023-02-18T09:26:21.294Z,112.22
2023-02-18T09:28:50.336Z,108.40
2023-02-18T09:31:22.026Z,112.53
2023-02-18T09:33:55.177Z,111.93
2023-02-18T09:36:26.256Z,135.65
2023-02-18T09:38:55.238Z,113.93
2023-02-18T09:41:36.905Z,104.93
2023-02-18T09:44:28.060Z,108.18
2023-02-18T09:47:25.500Z,99.07
2023-02-18T09:49:58.447Z,104.32
2023-02-18T09:52:36.201Z,105.68
2023-02-18T09:55:25.881Z,107.15
2023-02-18T09:58:25.127Z,108.88
2023-02-18T10:01:35.339Z,101.95
2023-02-18T10:04:13.354Z,102.57
2023-02-18T10:09:50.088Z,94.53
2023-02-18T10:12:30.088Z,95.13
2023-02-18T10:15:09.032Z,102.57
2023-02-18T10:20:28.600Z,98.05
2023-02-18T10:23:05.972Z,106.28
2023-02-18T10:25:55.796Z,99.38
2023-02-18T10:28:32.975Z,103.72
2023-02-18T10:31:09.899Z,101.40
2023-02-18T10:33:48.410Z,95.88
2023-02-18T10:36:27.095Z,98.47
2023-02-18T10:38:55.192Z,99.53
2023-02-18T10:41:33.673Z,98.82
2023-02-18T10:44:36.378Z,100.10
2023-02-18T10:47:25.224Z,94.93
2023-02-18T10:50:28.078Z,100.00
2023-02-18T10:53:02.718Z,99.60
2023-02-18T10:55:40.486Z,96.28
2023-02-18T10:58:30.302Z,100.97
2023-02-18T11:00:58.278Z,96.07
2023-02-18T11:03:38.706Z,94.95
2023-02-18T11:06:35.969Z,98.28
2023-02-18T11:09:04.031Z,97.07
2023-02-18T11:11:38.942Z,97.65
2023-02-18T11:14:08.582Z,98.38
2023-02-18T11:16:47.392Z,99.35
2023-02-18T11:20:20.410Z,98.35
2023-02-18T11:23:26.998Z,93.70
2023-02-18T11:26:06.681Z,98.80
2023-02-18T11:28:56.481Z,95.85
2023-02-18T11:31:38.461Z,96.82
2023-02-18T11:34:17.078Z,99.55
2023-02-18T11:37:12.692Z,96.10
2023-02-18T11:42:30.108Z,95.55
2023-02-18T11:45:05.860Z,95.80
2023-02-18T11:47:38.473Z,96.18
2023-02-18T11:50:09.178Z,96.47
2023-02-18T11:52:45.257Z,97.38
2023-02-18T11:55:15.740Z,99.32
2023-02-18T11:57:53.291Z,98.93
2023-02-18T12:00:37.856Z,94.20
2023-02-18T12:03:35.445Z,92.53
2023-02-18T12:06:11.993Z,94.60
2023-02-18T12:09:06.488Z,95.97
2023-02-18T12:11:42.818Z,92.63
2023-02-18T12:14:17.622Z,90.40
2023-02-18T12:17:20.951Z,91.28
2023-02-18T12:22:58.767Z,87.93
2023-02-18T12:25:52.890Z,90.80
2023-02-18T12:28:42.476Z,86.18
2023-02-18T12:31:42.395Z,85.72
2023-02-18T12:34:16.913Z,87.40
2023-02-18T12:36:59.534Z,85.10
2023-02-18T12:40:01.178Z,85.95
2023-02-18T12:42:55.419Z,87.72
2023-02-18T12:45:33.285Z,85.85
2023-02-18T12:48:24.297Z,88.05
2023-02-18T12:51:19.482Z,84.55
2023-02-18T12:53:57.187Z,82.25
2023-02-18T12:56:58.074Z,79.75
2023-02-18T13:00:03.151Z,84.25
2023-02-18T13:03:05.792Z,83.63
2023-02-18T13:05:52.244Z,84.18
2023-02-18T13:08:41.980Z,89.65
2023-02-18T13:11:32.446Z,81.07
2023-02-18T13:14:24.051Z,87.80
2023-02-18T13:16:55.222Z,89.32
2023-02-18T13:19:28.030Z,86.75
2023-02-18T13:22:02.461Z,83.32
2023-02-18T13:24:39.356Z,81.25
2023-02-18T13:27:25.113Z,79.75
2023-02-18T13:30:28.618Z,79.00
2023-02-18T13:33:18.611Z,74.97
2023-02-18T13:36:19.372Z,73.05
2023-02-18T13:39:24.159Z,72.43
2023-02-18T13:42:10.193Z,75.70
2023-02-18T13:45:01.774Z,74.30
2023-02-18T13:47:47.911Z,75.93
2023-02-18T13:50:30.109Z,68.22
2023-02-18T13:53:22.776Z,67.13
2023-02-18T13:58:50.904Z,63.20
2023-02-18T14:01:37.713Z,68.63
2023-02-18T14:04:36.044Z,66.82
2023-02-18T14:07:27.394Z,78.10
2023-02-18T14:09:57.427Z,68.68
2023-02-18T14:12:37.920Z,65.55
2023-02-18T14:15:22.034Z,68.40
2023-02-18T14:18:09.484Z,66.50
2023-02-18T14:20:40.341Z,68.60
2023-02-18T14:23:22.926Z,67.28
2023-02-18T14:25:57.862Z,66.00
2023-02-18T14:28:34.748Z,63.75
2023-02-18T14:31:17.400Z,65.72
2023-02-18T14:34:26.483Z,66.32
2023-02-18T14:37:15.501Z,68.35
2023-02-18T14:40:04.883Z,72.15
2023-02-18T14:42:32.511Z,66.07
2023-02-18T14:45:34.541Z,69.93
2023-02-18T14:50:38.682Z,70.32
2023-02-18T14:53:13.435Z,74.20
2023-02-18T14:55:51.089Z,74.38
2023-02-18T14:58:35.825Z,72.78
2023-02-18T15:01:21.742Z,75.45
2023-02-18T15:03:52.310Z,72.80
2023-02-18T15:06:36.958Z,73.53
2023-02-18T15:09:19.813Z,73.30
2023-02-18T15:12:09.559Z,76.43
2023-02-18T15:14:43.475Z,71.22
2023-02-18T15:17:24.136Z,72.25
2023-02-18T15:20:08.175Z,75.45
2023-02-18T15:22:38.871Z,76.28
2023-02-18T15:25:10.352Z,76.68
2023-02-18T15:27:48.964Z,78.60
2023-02-18T15:30:45.634Z,78.53
2023-02-18T15:33:23.882Z,72.50
2023-02-18T15:36:07.862Z,93.43
2023-02-18T15:39:02.216Z,87.22
2023-02-18T15:41:47.122Z,78.80
2023-02-18T15:44:51.294Z,75.93
2023-02-18T15:47:40.017Z,82.75
2023-02-18T15:50:25.983Z,76.90
2023-02-18T15:53:11.037Z,72.97
2023-02-18T15:55:42.245Z,73.03
2023-02-18T15:58:29.300Z,72.13
2023-02-18T16:02:04.484Z,75.38
2023-02-18T16:04:44.783Z,79.88
2023-02-18T16:07:31.508Z,82.20
2023-02-18T16:10:19.270Z,86.93
2023-02-18T16:13:09.806Z,93.97
2023-02-18T16:15:44.421Z,89.40
2023-02-18T16:18:37.974Z,82.30
2023-02-18T16:22:01.952Z,78.15
2023-02-18T16:25:08.935Z,78.47
2023-02-18T16:27:49.001Z,82.82
2023-02-18T16:30:37.181Z,87.65
2023-02-18T16:33:06.500Z,97.72
2023-02-18T16:35:49.014Z,84.07
2023-02-18T16:38:28.324Z,80.63
2023-02-18T16:41:02.782Z,90.13
2023-02-18T16:43:37.672Z,127.97
2023-02-18T16:47:20.599Z,102.90
2023-02-18T16:49:59.103Z,88.50
2023-02-18T16:52:34.210Z,95.25
2023-02-18T16:55:08.549Z,97.22
2023-02-18T16:57:39.306Z,90.65
2023-02-18T17:00:13.025Z,97.18
2023-02-18T17:05:26.799Z,131.40
2023-02-18T17:08:24.053Z,130.85
2023-02-18T17:10:57.333Z,108.45
2023-02-18T17:16:15.608Z,136.82
2023-02-18T17:18:43.920Z,134.95
2023-02-18T17:21:19.668Z,112.88
2023-02-18T17:24:01.172Z,138.45
2023-02-18T17:26:30.035Z,118.95
2023-02-18T17:29:00.640Z,107.65
2023-02-18T17:31:31.637Z,131.50
2023-02-18T17:34:02.546Z,116.45
2023-02-18T17:36:33.218Z,99.38
2023-02-18T17:39:04.766Z,104.55
2023-02-18T17:44:05.421Z,98.93
2023-02-18T17:49:11.588Z,100.88
2023-02-18T17:51:40.725Z,99.72
2023-02-18T17:54:25.727Z,102.15
2023-02-18T17:57:11.125Z,103.72
2023-02-18T17:59:44.478Z,110.40
2023-02-18T18:02:29.333Z,106.10
2023-02-18T18:05:08.389Z,102.15
2023-02-18T18:07:36.101Z,103.75
2023-02-18T18:10:03.943Z,99.30
2023-02-18T18:12:34.242Z,104.07
2023-02-18T18:15:05.075Z,103.97
2023-02-18T18:17:33.161Z,108.63
2023-02-18T18:20:01.374Z,106.07
2023-02-18T18:22:29.080Z,103.63
2023-02-18T18:24:56.748Z,110.82
2023-02-18T18:27:27.377Z,110.07
2023-02-18T18:29:57.598Z,107.50
2023-02-18T18:32:25.212Z,108.32
2023-02-18T18:35:01.787Z,107.65
2023-02-18T18:37:32.933Z,106.53
2023-02-18T18:40:03.202Z,103.57
2023-02-18T18:42:31.169Z,109.70
2023-02-18T18:45:04.310Z,108.07
2023-02-18T18:47:32.134Z,107.97
2023-02-18T18:50:02.981Z,107.10
2023-02-18T18:52:33.686Z,106.60
2023-02-18T18:55:01.564Z,105.57
2023-02-18T18:57:29.705Z,109.13
2023-02-18T19:00:08.750Z,107.03
2023-02-18T19:02:41.949Z,110.70
2023-02-18T19:05:37.205Z,112.07
2023-02-18T19:08:06.516Z,105.95
2023-02-18T19:10:37.499Z,104.50
2023-02-18T19:13:12.465Z,100.95
2023-02-18T19:15:41.894Z,109.00
2023-02-18T19:18:17.530Z,111.72
2023-02-18T19:20:56.540Z,115.25
2023-02-18T19:23:38.445Z,106.95
2023-02-18T19:26:11.690Z,110.43
2023-02-18T19:28:43.363Z,107.43
2023-02-18T19:31:11.841Z,108.00
2023-02-18T19:33:39.918Z,111.30
2023-02-18T19:36:11.231Z,111.25
2023-02-18T19:38:39.409Z,89.97
2023-02-18T19:41:12.616Z,120.03
2023-02-18T19:43:41.495Z,117.05
2023-02-18T19:46:14.695Z,116.00
2023-02-18T19:48:42.759Z,119.55
2023-02-18T19:51:10.939Z,120.95
2023-02-18T19:53:38.687Z,119.38
2023-02-18T19:56:07.451Z,120.20
2023-02-18T19:58:36.281Z,118.03
2023-02-18T20:01:04.246Z,120.28
2023-02-18T20:03:31.830Z,117.30
2023-02-18T20:05:59.273Z,117.65
2023-02-18T20:08:26.692Z,115.20
2023-02-18T20:11:00.347Z,120.97
2023-02-18T20:13:27.889Z,120.32
2023-02-18T20:15:55.439Z,115.35
2023-02-18T20:18:22.912Z,121.32
2023-02-18T20:20:51.107Z,119.85
2023-02-18T20:23:20.220Z,115.63
2023-02-18T20:25:47.786Z,117.65
2023-02-18T20:28:15.923Z,110.20
2023-02-18T20:30:44.210Z,110.60
2023-02-18T20:33:11.670Z,114.25
2023-02-18T20:35:39.125Z,163.00
2023-02-18T20:38:06.611Z,117.18
2023-02-18T20:40:34.198Z,110.70
2023-02-18T20:43:01.748Z,107.75
2023-02-18T20:45:29.320Z,114.82
2023-02-18T20:47:56.841Z,114.82
2023-02-18T20:50:24.403Z,121.07
2023-02-18T20:52:52.666Z,121.03
2023-02-18T20:55:21.026Z,119.47
2023-02-18T20:57:48.527Z,119.07
2023-02-18T21:00:16.228Z,118.40
2023-02-18T21:02:43.737Z,116.75
2023-02-18T21:05:11.209Z,115.50
2023-02-18T21:07:38.694Z,115.97
2023-02-18T21:10:06.680Z,117.47
2023-02-18T21:12:34.159Z,112.07
2023-02-18T21:15:01.757Z,124.53
2023-02-18T21:17:29.404Z,112.93
2023-02-18T21:19:56.802Z,107.70
2023-02-18T21:22:24.235Z,112.53
2023-02-18T21:24:53.466Z,113.97
2023-02-18T21:27:20.914Z,116.07
2023-02-18T21:29:48.348Z,108.25
2023-02-18T21:32:15.834Z,112.68
2023-02-18T21:34:43.366Z,117.05
2023-02-18T21:37:10.867Z,115.90
2023-02-18T21:39:38.440Z,118.70
2023-02-18T21:42:06.823Z,118.07
2023-02-18T21:44:42.255Z,117.18
2023-02-18T21:47:11.268Z,119.53
2023-02-18T21:49:38.756Z,121.15
2023-02-18T21:52:08.973Z,117.50
2023-02-18T21:54:39.869Z,114.25
2023-02-18T21:57:17.453Z,112.82
2023-02-18T21:59:45.515Z,114.65
2023-02-18T22:02:22.992Z,112.95
2023-02-18T22:04:51.194Z,114.15
2023-02-18T22:07:20.006Z,115.90
2023-02-18T22:09:48.665Z,129.75
2023-02-18T22:12:17.246Z,111.93
2023-02-18T22:14:44.735Z,112.88
2023-02-18T22:17:12.951Z,112.75
2023-02-18T22:19:42.349Z,110.43
2023-02-18T22:22:10.936Z,108.35
2023-02-18T22:24:38.400Z,110.10
2023-02-18T22:27:05.903Z,111.25
2023-02-18T22:29:33.460Z,112.55
2023-02-18T22:32:01.004Z,109.40
2023-02-18T22:34:28.626Z,106.22
2023-02-18T22:36:56.204Z,111.82
2023-02-18T22:39:24.416Z,107.20
2023-02-18T22:41:51.826Z,111.95
2023-02-18T22:44:19.411Z,115.10
2023-02-18T22:46:46.892Z,111.97
2023-02-18T22:49:14.615Z,108.35
2023-02-18T22:51:44.099Z,107.97
2023-02-18T22:54:14.868Z,110.38
2023-02-18T22:56:43.155Z,112.15
2023-02-18T22:59:12.466Z,111.55
2023-02-18T23:01:42.779Z,107.40
2023-02-18T23:04:13.659Z,104.65
2023-02-18T23:06:43.483Z,110.70
2023-02-18T23:09:17.020Z,105.28
2023-02-18T23:11:44.873Z,104.55
2023-02-18T23:14:38.281Z,109.78
2023-02-18T23:17:15.080Z,109.18
2023-02-18T23:19:53.953Z,110.50
2023-02-18T23:22:32.253Z,113.95
2023-02-18T23:25:01.476Z,106.75
2023-02-18T23:27:29.573Z,105.47
2023-02-18T23:29:57.244Z,102.03
2023-02-18T23:32:26.085Z,104.07
2023-02-18T23:34:53.533Z,105.80
2023-02-18T23:37:44.189Z,102.22
2023-02-18T23:40:13.835Z,108.20
2023-02-18T23:42:41.355Z,108.78
2023-02-18T23:45:09.031Z,108.65
2023-02-18T23:47:36.475Z,107.38
2023-02-18T23:50:04.202Z,107.65
2023-02-18T23:52:31.604Z,105.72
2023-02-18T23:54:59.024Z,107.20
2023-02-18T23:57:30.809Z,103.05
2023-02-18T23:59:58.311Z,106.30
